Time;durP1;ratioP1;P1;durP2;ratioP2;P2;SDS_P1;SDS_P2;PMS_P1;PMS_P2;Temp;Humidity;BMP_temperature;BMP_pressure;BME280_temperature;BME280_humidity;BME280_pressure;Samples;Min_cycle;Max_cycle;Signal;HPM_P1;HPM_P2
2022/03/20 00:01:59;;;;;;;;;;;3.50;99.90;;;;;;5045333;28;19926;-57
2022/03/20 00:04:25;;;;;;;;;;;3.40;99.90;;;;;;5055510;28;19928;-57
2022/03/20 00:06:52;;;;;;;;;;;3.50;99.90;;;;;;5055319;28;19928;-56
2022/03/20 00:09:19;;;;;;;;;;;3.40;99.90;;;;;;5054725;28;20284;-56
2022/03/20 00:11:45;;;;;;;;;;;3.30;99.90;;;;;;5047451;28;19983;-56
2022/03/20 00:14:12;;;;;;;;;;;3.20;99.90;;;;;;5056026;28;19974;-56
2022/03/20 00:16:43;;;;;;;;;;;3.40;99.90;;;;;;5055908;28;19986;-56
2022/03/20 00:19:10;;;;;;;;;;;3.40;99.90;;;;;;5055592;28;19925;-56
2022/03/20 00:21:37;;;;;;;;;;;3.40;99.90;;;;;;5055608;28;19982;-56
2022/03/20 00:24:04;;;;;;;;;;;3.40;99.90;;;;;;5054553;28;19933;-56
2022/03/20 00:26:31;;;;;;;;;;;3.30;99.90;;;;;;5054685;28;19932;-55
2022/03/20 00:28:58;;;;;;;;;;;3.20;99.90;;;;;;5054945;28;19933;-55
2022/03/20 00:31:25;;;;;;;;;;;3.20;99.90;;;;;;5055150;28;19929;-55
2022/03/20 00:33:53;;;;;;;;;;;3.10;99.90;;;;;;5054014;28;20024;-56
2022/03/20 00:36:20;;;;;;;;;;;3.30;99.90;;;;;;5054290;28;20222;-55
2022/03/20 00:38:47;;;;;;;;;;;3.50;99.90;;;;;;5054860;28;19971;-55
2022/03/20 00:41:14;;;;;;;;;;;3.60;99.90;;;;;;5055112;28;20150;-56
2022/03/20 00:43:40;;;;;;;;;;;3.50;99.90;;;;;;5054667;28;19932;-55
2022/03/20 00:46:07;;;;;;;;;;;3.60;99.90;;;;;;5053104;28;19971;-55
2022/03/20 00:48:34;;;;;;;;;;;3.80;99.90;;;;;;5054907;28;19925;-56
2022/03/20 00:51:03;;;;;;;;;;;3.80;99.90;;;;;;5054453;28;19929;-56
2022/03/20 00:53:31;;;;;;;;;;;3.80;99.90;;;;;;5054336;28;19925;-56
2022/03/20 00:55:57;;;;;;;;;;;3.60;99.90;;;;;;5053927;28;19924;-56
2022/03/20 00:58:24;;;;;;;;;;;3.80;99.90;;;;;;5053294;28;19971;-56
2022/03/20 01:00:51;;;;;;;;;;;3.90;99.90;;;;;;5054350;28;19971;-56
2022/03/20 01:03:18;;;;;;;;;;;3.70;99.90;;;;;;5054385;28;20028;-56
2022/03/20 01:05:45;;;;;;;;;;;3.70;99.90;;;;;;5047064;28;19931;-56
2022/03/20 01:08:13;;;;;;;;;;;3.60;99.90;;;;;;5054513;28;19925;-56
2022/03/20 01:10:40;;;;;;;;;;;3.40;99.90;;;;;;5054032;28;19925;-56
2022/03/20 01:13:07;;;;;;;;;;;3.80;99.90;;;;;;5054536;28;19929;-56
2022/03/20 01:15:34;;;;;;;;;;;3.90;99.90;;;;;;5054280;28;19924;-57
2022/03/20 01:18:00;;;;;;;;;;;4.00;99.90;;;;;;5053940;28;20002;-56
2022/03/20 01:20:27;;;;;;;;;;;3.80;99.90;;;;;;5053916;28;19984;-56
2022/03/20 01:22:54;;;;;;;;;;;3.80;99.90;;;;;;5054044;28;19925;-56
2022/03/20 01:25:22;;;;;;;;;;;3.80;99.90;;;;;;5053910;28;20458;-56
2022/03/20 01:27:49;;;;;;;;;;;3.50;99.90;;;;;;5054057;28;20055;-56
2022/03/20 01:30:15;;;;;;;;;;;3.60;99.90;;;;;;5053730;28;19925;-56
2022/03/20 01:32:42;;;;;;;;;;;3.50;99.90;;;;;;5053720;28;19932;-56
2022/03/20 01:35:09;;;;;;;;;;;3.30;99.90;;;;;;5053891;28;20024;-56
2022/03/20 01:37:36;;;;;;;;;;;3.40;99.90;;;;;;5056170;28;19935;-56
2022/03/20 01:40:03;;;;;;;;;;;3.40;99.90;;;;;;5056272;28;20399;-56
2022/03/20 01:42:32;;;;;;;;;;;3.50;99.90;;;;;;5055094;28;19934;-56
2022/03/20 01:44:59;;;;;;;;;;;3.60;99.90;;;;;;5053682;28;20012;-57
2022/03/20 01:47:25;;;;;;;;;;;3.40;99.90;;;;;;5053548;28;20358;-56
2022/03/20 01:49:52;;;;;;;;;;;3.60;99.90;;;;;;5053488;28;19928;-56
2022/03/20 01:52:25;;;;;;;;;;;3.60;99.90;;;;;;5053665;28;19928;-56
2022/03/20 01:54:53;;;;;;;;;;;3.40;99.90;;;;;;5052447;28;20395;-56
2022/03/20 01:57:21;;;;;;;;;;;3.20;99.90;;;;;;5053602;28;19924;-56
2022/03/20 01:59:49;;;;;;;;;;;3.20;99.90;;;;;;5053758;28;19972;-56
2022/03/20 02:02:16;;;;;;;;;;;3.30;99.90;;;;;;5053395;28;19928;-56
2022/03/20 02:04:43;;;;;;;;;;;3.30;99.90;;;;;;5052955;28;19979;-56
2022/03/20 02:07:10;;;;;;;;;;;3.50;99.90;;;;;;5052961;28;19929;-56
2022/03/20 02:09:37;;;;;;;;;;;3.60;99.90;;;;;;5053069;28;19924;-56
2022/03/20 02:12:05;;;;;;;;;;;3.50;99.90;;;;;;5052980;28;19925;-55
2022/03/20 02:14:32;;;;;;;;;;;3.50;99.90;;;;;;5053208;28;20392;-56
2022/03/20 02:17:00;;;;;;;;;;;3.40;99.90;;;;;;5053339;28;19928;-56
2022/03/20 02:19:28;;;;;;;;;;;3.30;99.90;;;;;;5053349;28;20012;-56
2022/03/20 02:21:56;;;;;;;;;;;3.20;99.90;;;;;;5052384;28;19925;-55
2022/03/20 02:24:33;;;;;;;;;;;3.10;99.90;;;;;;5053508;28;19978;-56
2022/03/20 02:27:07;;;;;;;;;;;3.00;99.90;;;;;;5053005;28;20011;-56
2022/03/20 02:29:34;;;;;;;;;;;3.20;99.90;;;;;;5052337;28;19928;-56
2022/03/20 02:32:01;;;;;;;;;;;3.30;99.90;;;;;;5052359;28;20308;-56
2022/03/20 02:34:27;;;;;;;;;;;3.10;99.90;;;;;;5052559;28;19925;-56
2022/03/20 02:36:56;;;;;;;;;;;3.10;99.90;;;;;;5052063;28;19931;-56
2022/03/20 02:39:24;;;;;;;;;;;3.40;99.90;;;;;;5053723;28;19924;-56
2022/03/20 02:41:51;;;;;;;;;;;3.40;99.90;;;;;;5052309;28;19982;-56
2022/03/20 02:44:17;;;;;;;;;;;3.10;99.90;;;;;;5052857;28;19929;-56
2022/03/20 02:46:44;;;;;;;;;;;3.00;99.90;;;;;;5052187;28;19932;-56
2022/03/20 02:49:11;;;;;;;;;;;2.90;99.90;;;;;;5052975;28;19924;-56
2022/03/20 02:51:38;;;;;;;;;;;3.00;99.90;;;;;;5052023;28;20028;-56
2022/03/20 02:54:06;;;;;;;;;;;3.30;99.90;;;;;;5052575;28;19929;-55
2022/03/20 02:56:34;;;;;;;;;;;3.20;99.90;;;;;;5052826;28;19974;-56
2022/03/20 02:59:02;;;;;;;;;;;3.10;99.90;;;;;;5052631;28;19979;-55
2022/03/20 03:01:29;;;;;;;;;;;3.10;99.90;;;;;;5052286;28;19960;-56
2022/03/20 03:03:56;;;;;;;;;;;2.90;99.90;;;;;;5052567;28;19960;-56
2022/03/20 03:06:22;;;;;;;;;;;2.90;99.90;;;;;;5052456;28;19933;-56
2022/03/20 03:11:46;;;;;;;;;;;2.90;99.90;;;;;;5010753;28;20312;-55
2022/03/20 03:16:57;;;;;;;;;;;2.80;99.90;;;;;;5052910;28;19935;-56
2022/03/20 03:19:24;;;;;;;;;;;2.80;99.90;;;;;;5052623;28;19970;-56
2022/03/20 03:21:51;;;;;;;;;;;2.70;99.90;;;;;;5053840;28;20362;-56
2022/03/20 03:24:17;;;;;;;;;;;2.60;99.90;;;;;;5056247;28;19982;-56
2022/03/20 03:26:44;;;;;;;;;;;2.70;99.90;;;;;;5056025;28;19925;-56
2022/03/20 03:29:12;;;;;;;;;;;2.70;99.90;;;;;;5057208;28;19929;-56
2022/03/20 03:31:39;;;;;;;;;;;2.80;99.90;;;;;;5056085;28;20350;-56
2022/03/20 03:36:50;;;;;;;;;;;2.80;99.90;;;;;;5056098;28;19978;-56
2022/03/20 03:39:19;;;;;;;;;;;3.00;99.90;;;;;;5059252;28;19932;-55
2022/03/20 03:41:45;;;;;;;;;;;2.80;99.90;;;;;;5058084;28;20000;-55
2022/03/20 03:44:13;;;;;;;;;;;2.80;99.90;;;;;;5057415;28;19924;-55
2022/03/20 03:46:40;;;;;;;;;;;2.60;99.90;;;;;;5055964;28;19933;-55
2022/03/20 03:49:07;;;;;;;;;;;2.60;99.90;;;;;;5056398;28;19928;-55
2022/03/20 03:51:34;;;;;;;;;;;2.50;99.90;;;;;;5055660;28;19996;-56
2022/03/20 03:54:00;;;;;;;;;;;2.70;99.90;;;;;;5055632;28;19924;-55
2022/03/20 03:56:30;;;;;;;;;;;2.70;99.90;;;;;;5054994;28;20992;-55
2022/03/20 03:58:56;;;;;;;;;;;2.70;99.90;;;;;;5054635;28;19992;-55
2022/03/20 04:01:25;;;;;;;;;;;2.80;99.90;;;;;;5053965;28;19994;-55
2022/03/20 04:03:51;;;;;;;;;;;2.90;99.90;;;;;;5055464;28;19925;-55
2022/03/20 04:06:18;;;;;;;;;;;2.90;99.90;;;;;;5055196;28;19929;-56
2022/03/20 04:08:45;;;;;;;;;;;2.80;99.90;;;;;;5054800;28;20002;-56
2022/03/20 04:11:12;;;;;;;;;;;2.60;99.90;;;;;;5055183;28;19924;-56
2022/03/20 04:13:41;;;;;;;;;;;2.40;99.90;;;;;;5055156;28;20392;-56
2022/03/20 04:16:08;;;;;;;;;;;2.40;99.90;;;;;;5054357;28;19929;-56
2022/03/20 04:18:36;;;;;;;;;;;2.40;99.90;;;;;;5054924;28;19933;-56
2022/03/20 04:21:06;;;;;;;;;;;2.50;99.90;;;;;;5054222;28;20437;-55
2022/03/20 04:23:48;;;;;;;;;;;2.50;99.90;;;;;;5053107;28;19935;-55
2022/03/20 04:26:17;;;;;;;;;;;2.50;99.90;;;;;;5050885;28;20313;-55
2022/03/20 04:28:46;;;;;;;;;;;2.50;99.90;;;;;;5049852;28;19992;-55
2022/03/20 04:31:15;;;;;;;;;;;2.40;99.90;;;;;;5053093;28;19960;-55
2022/03/20 04:33:43;;;;;;;;;;;2.30;99.90;;;;;;5053603;28;19925;-55
2022/03/20 04:36:10;;;;;;;;;;;2.40;99.90;;;;;;5052544;28;19925;-55
2022/03/20 04:38:37;;;;;;;;;;;3.00;99.90;;;;;;5053714;28;20002;-55
2022/03/20 04:41:06;;;;;;;;;;;3.60;99.90;;;;;;5053027;28;19933;-55
2022/03/20 04:43:34;;;;;;;;;;;4.40;99.90;;;;;;5053822;28;20062;-55
2022/03/20 04:46:00;;;;;;;;;;;5.40;99.90;;;;;;5054058;28;20449;-56
2022/03/20 04:59:26;;;;;;;;;;;6.90;99.30;;;;;;5052621;28;20031;-55
2022/03/20 05:01:53;;;;;;;;;;;6.90;99.10;;;;;;5052711;28;19931;-55
2022/03/20 05:04:19;;;;;;;;;;;7.00;98.40;;;;;;5052532;28;20350;-56
2022/03/20 05:06:48;;;;;;;;;;;7.10;97.30;;;;;;5053096;28;19972;-55
2022/03/20 05:14:42;;;;;;;;;;;7.70;94.80;;;;;;5053786;28;19951;-56
2022/03/20 05:17:10;;;;;;;;;;;7.70;94.30;;;;;;5052767;28;19925;-56
2022/03/20 05:19:37;;;;;;;;;;;7.70;94.00;;;;;;5053309;28;20350;-57
2022/03/20 05:22:06;;;;;;;;;;;7.70;93.30;;;;;;5052746;28;20392;-54
2022/03/20 05:24:35;;;;;;;;;;;7.80;93.30;;;;;;5052758;28;19925;-55
2022/03/20 05:27:01;;;;;;;;;;;7.70;92.90;;;;;;5053173;28;19932;-55
2022/03/20 05:29:28;;;;;;;;;;;7.70;93.00;;;;;;5052893;28;19947;-55
2022/03/20 05:31:56;;;;;;;;;;;7.70;92.40;;;;;;5052797;28;19971;-55
2022/03/20 05:34:23;;;;;;;;;;;7.60;92.50;;;;;;5052707;28;19970;-55
2022/03/20 05:36:51;;;;;;;;;;;7.70;92.10;;;;;;5053158;28;19929;-54
2022/03/20 05:39:19;;;;;;;;;;;7.80;91.60;;;;;;5053871;28;20461;-55
2022/03/20 05:41:50;;;;;;;;;;;7.90;91.50;;;;;;5047772;28;19924;-55
2022/03/20 05:44:18;;;;;;;;;;;7.80;91.90;;;;;;5052369;28;20456;-55
2022/03/20 05:46:46;;;;;;;;;;;7.90;91.20;;;;;;5052937;28;19929;-55
2022/03/20 05:49:13;;;;;;;;;;;7.90;91.40;;;;;;5078474;22;19971;31
2022/03/20 05:51:40;;;;;;;;;;;8.00;91.40;;;;;;5060899;28;19929;-52
2022/03/20 05:54:07;;;;;;;;;;;8.00;90.90;;;;;;5069395;28;19998;-51
2022/03/20 05:59:19;;;;;;;;;;;8.00;91.70;;;;;;5070433;28;19934;-52
2022/03/20 06:01:48;;;;;;;;;;;8.10;90.90;;;;;;5058154;28;20316;-52
2022/03/20 06:04:15;;;;;;;;;;;8.20;90.50;;;;;;5064177;28;19994;-52
2022/03/20 06:06:42;;;;;;;;;;;8.40;90.10;;;;;;5071294;28;19958;-52
2022/03/20 06:09:09;;;;;;;;;;;8.50;90.30;;;;;;5065969;28;19925;-52
2022/03/20 06:11:37;;;;;;;;;;;8.50;90.60;;;;;;5059979;28;19925;-53
2022/03/20 06:14:04;;;;;;;;;;;8.50;90.90;;;;;;5052027;28;19995;-52
2022/03/20 06:16:31;;;;;;;;;;;8.60;90.10;;;;;;5035730;28;20067;-52
2022/03/20 06:18:58;;;;;;;;;;;8.80;90.50;;;;;;5049425;28;19925;-52
2022/03/20 06:21:25;;;;;;;;;;;9.30;90.10;;;;;;5047088;28;20069;-52
2022/03/20 06:23:53;;;;;;;;;;;10.20;87.00;;;;;;5041909;28;20015;-52
2022/03/20 06:26:20;;;;;;;;;;;10.90;84.20;;;;;;5044302;28;19924;-52
2022/03/20 06:28:48;;;;;;;;;;;11.10;81.60;;;;;;5046235;28;20903;-52
2022/03/20 06:31:17;;;;;;;;;;;11.40;81.80;;;;;;5050704;28;19932;-52
2022/03/20 06:33:44;;;;;;;;;;;11.80;80.10;;;;;;5050096;28;20403;-52
2022/03/20 06:36:11;;;;;;;;;;;11.80;80.30;;;;;;5041985;28;20309;-52
2022/03/20 06:38:38;;;;;;;;;;;12.40;78.60;;;;;;5035628;28;19977;-52
2022/03/20 06:41:04;;;;;;;;;;;12.60;76.80;;;;;;5042203;28;19932;-52
2022/03/20 06:43:31;;;;;;;;;;;12.60;76.20;;;;;;5049762;28;19937;-52
2022/03/20 06:45:59;;;;;;;;;;;13.20;75.00;;;;;;5050625;28;19925;-53
2022/03/20 06:48:26;;;;;;;;;;;13.50;74.10;;;;;;5048339;28;19971;-53
2022/03/20 06:50:53;;;;;;;;;;;13.70;71.10;;;;;;5048504;28;19933;-52
2022/03/20 06:53:20;;;;;;;;;;;13.50;72.10;;;;;;5039410;28;19990;-52
2022/03/20 06:55:48;;;;;;;;;;;13.30;71.80;;;;;;5051131;28;19925;-52
2022/03/20 06:58:17;;;;;;;;;;;13.80;71.70;;;;;;5050140;28;19933;-52
2022/03/20 07:00:43;;;;;;;;;;;13.60;70.80;;;;;;5044013;28;19928;-50
2022/03/20 07:03:12;;;;;;;;;;;13.90;69.10;;;;;;5046056;28;19994;-50
2022/03/20 07:05:38;;;;;;;;;;;13.60;69.40;;;;;;5051930;28;19990;-50
2022/03/20 07:08:06;;;;;;;;;;;13.50;69.80;;;;;;5041441;28;20312;-50
2022/03/20 07:10:33;;;;;;;;;;;13.10;70.70;;;;;;5042945;28;19948;-51
2022/03/20 07:15:42;;;;;;;;;;;13.80;69.20;;;;;;5047043;28;19927;-51
2022/03/20 07:18:09;;;;;;;;;;;13.90;70.40;;;;;;5042113;28;19991;-50
2022/03/20 07:20:38;;;;;;;;;;;13.90;67.50;;;;;;5049065;28;19978;-51
2022/03/20 07:23:07;;;;;;;;;;;13.90;67.20;;;;;;5052558;28;19943;-51
2022/03/20 07:31:11;;;;;;;;;;;15.30;64.40;;;;;;5051481;28;19928;-51
2022/03/20 07:33:40;;;;;;;;;;;14.30;66.10;;;;;;5052680;28;19929;-51
2022/03/20 07:36:09;;;;;;;;;;;14.10;66.60;;;;;;5060190;28;20478;-50
2022/03/20 07:38:36;;;;;;;;;;;14.00;65.70;;;;;;5068850;28;19925;-50
2022/03/20 07:41:02;;;;;;;;;;;14.30;64.30;;;;;;5066274;28;19935;-51
2022/03/20 07:43:29;;;;;;;;;;;14.40;63.70;;;;;;5063813;28;19925;-51
2022/03/20 07:45:57;;;;;;;;;;;14.50;64.30;;;;;;5052200;28;20005;-51
2022/03/20 07:48:24;;;;;;;;;;;14.20;64.10;;;;;;5064411;28;19928;-51
2022/03/20 07:50:51;;;;;;;;;;;15.10;63.30;;;;;;5065741;28;19970;-51
2022/03/20 07:53:19;;;;;;;;;;;14.90;61.20;;;;;;5063867;28;20399;-51
2022/03/20 07:55:46;;;;;;;;;;;15.70;62.00;;;;;;5058251;28;20511;-50
2022/03/20 07:58:18;;;;;;;;;;;15.50;62.50;;;;;;5061305;28;20334;-51
2022/03/20 08:00:45;;;;;;;;;;;15.50;62.70;;;;;;5068173;28;19928;-51
2022/03/20 08:03:12;;;;;;;;;;;15.50;61.10;;;;;;5067010;28;19924;-50
2022/03/20 08:05:39;;;;;;;;;;;16.10;59.20;;;;;;5057880;28;19925;-50
2022/03/20 08:08:07;;;;;;;;;;;16.00;59.20;;;;;;5065998;28;19932;-52
2022/03/20 08:10:35;;;;;;;;;;;15.50;59.50;;;;;;5073145;28;20387;-50
2022/03/20 08:13:02;;;;;;;;;;;15.60;58.30;;;;;;5069533;28;19977;-50
2022/03/20 08:15:28;;;;;;;;;;;15.90;59.40;;;;;;5073513;28;19977;-51
2022/03/20 08:17:55;;;;;;;;;;;16.20;59.80;;;;;;5065292;28;19955;-51
2022/03/20 08:20:22;;;;;;;;;;;16.70;59.30;;;;;;5073111;28;20277;-51
2022/03/20 08:22:49;;;;;;;;;;;17.20;56.70;;;;;;5065386;28;19929;-51
2022/03/20 08:25:16;;;;;;;;;;;18.40;56.20;;;;;;5072096;28;20035;-52
2022/03/20 08:27:45;;;;;;;;;;;17.90;56.90;;;;;;5072918;28;19985;-52
2022/03/20 08:30:13;;;;;;;;;;;18.50;54.80;;;;;;5072966;28;19936;-51
2022/03/20 08:32:40;;;;;;;;;;;18.00;55.10;;;;;;5072852;28;19932;-52
2022/03/20 08:35:13;;;;;;;;;;;19.10;56.60;;;;;;5052506;28;19977;-52
2022/03/20 08:37:43;;;;;;;;;;;19.40;53.60;;;;;;5057031;28;20311;-52
2022/03/20 08:40:15;;;;;;;;;;;19.60;54.20;;;;;;5063610;28;20287;-51
2022/03/20 08:42:43;;;;;;;;;;;19.40;54.50;;;;;;5068285;28;19932;-52
2022/03/20 08:45:12;;;;;;;;;;;18.20;53.80;;;;;;5062286;28;20032;-51
2022/03/20 08:47:39;;;;;;;;;;;18.00;53.90;;;;;;5054119;28;20024;-51
2022/03/20 08:50:07;;;;;;;;;;;19.00;54.80;;;;;;5057507;28;19931;-52
2022/03/20 08:52:34;;;;;;;;;;;19.20;54.30;;;;;;5060851;28;19940;-51
2022/03/20 08:55:03;;;;;;;;;;;19.80;54.80;;;;;;5049800;28;19991;-51
2022/03/20 08:57:31;;;;;;;;;;;20.50;51.50;;;;;;5043803;28;19944;-52
2022/03/20 08:59:58;;;;;;;;;;;19.90;52.70;;;;;;5052298;28;19924;-52
2022/03/20 09:02:26;;;;;;;;;;;19.50;52.60;;;;;;5051855;28;20019;-52
2022/03/20 09:04:53;;;;;;;;;;;20.80;50.90;;;;;;5038250;28;19925;-52
2022/03/20 09:07:20;;;;;;;;;;;21.00;50.30;;;;;;5048930;28;19925;-52
2022/03/20 09:09:47;;;;;;;;;;;20.30;51.30;;;;;;5044485;28;20350;-52
2022/03/20 09:12:13;;;;;;;;;;;20.50;51.70;;;;;;5042806;28;19983;-52
2022/03/20 09:14:42;;;;;;;;;;;20.90;51.00;;;;;;5039136;28;20339;-52
2022/03/20 09:19:55;;;;;;;;;;;21.20;48.80;;;;;;5044854;28;20417;-51
2022/03/20 09:22:22;;;;;;;;;;;21.60;50.20;;;;;;5052020;28;19929;-52
2022/03/20 09:24:49;;;;;;;;;;;22.30;49.10;;;;;;5045151;28;19968;-52
2022/03/20 09:27:15;;;;;;;;;;;21.40;47.30;;;;;;5032633;28;19998;-52
2022/03/20 09:29:42;;;;;;;;;;;21.30;48.10;;;;;;5046141;28;19924;-52
2022/03/20 09:32:09;;;;;;;;;;;20.70;46.70;;;;;;5038850;28;19925;-52
2022/03/20 09:34:36;;;;;;;;;;;20.40;48.40;;;;;;5048912;28;19978;-52
2022/03/20 09:37:04;;;;;;;;;;;19.90;49.90;;;;;;5048300;28;19975;-51
2022/03/20 09:39:32;;;;;;;;;;;20.40;47.10;;;;;;5043239;28;20296;-52
2022/03/20 09:41:59;;;;;;;;;;;20.80;49.20;;;;;;5035151;28;19979;-52
2022/03/20 09:44:26;;;;;;;;;;;21.50;46.30;;;;;;5046878;28;19968;-52
2022/03/20 09:46:53;;;;;;;;;;;21.60;46.70;;;;;;5046513;28;19965;-52
2022/03/20 09:49:22;;;;;;;;;;;21.60;46.60;;;;;;5050023;28;19928;-52
2022/03/20 09:51:49;;;;;;;;;;;21.40;44.60;;;;;;5051947;28;19932;-51
2022/03/20 09:54:17;;;;;;;;;;;20.90;47.50;;;;;;5051454;28;19931;-52
2022/03/20 09:56:44;;;;;;;;;;;22.30;45.60;;;;;;5031886;28;19987;-52
2022/03/20 09:59:11;;;;;;;;;;;22.20;44.00;;;;;;5032596;28;19925;-52
2022/03/20 10:01:38;;;;;;;;;;;20.90;43.00;;;;;;5056971;28;20662;-51
2022/03/20 10:04:08;;;;;;;;;;;20.10;46.10;;;;;;5070216;28;19959;-52
2022/03/20 10:06:36;;;;;;;;;;;20.80;45.60;;;;;;5070122;28;20337;-52
2022/03/20 10:09:07;;;;;;;;;;;21.60;46.00;;;;;;5070151;28;20334;-52
2022/03/20 10:11:36;;;;;;;;;;;21.40;44.40;;;;;;5062405;28;20468;-52
2022/03/20 10:14:07;;;;;;;;;;;21.30;45.20;;;;;;5069571;28;19924;-52
2022/03/20 10:16:34;;;;;;;;;;;21.50;45.50;;;;;;5065971;28;20007;-51
2022/03/20 10:19:00;;;;;;;;;;;21.40;45.30;;;;;;5061853;28;19990;-52
2022/03/20 10:21:42;;;;;;;;;;;20.80;44.10;;;;;;5063477;28;20305;-52
2022/03/20 10:24:14;;;;;;;;;;;20.50;45.20;;;;;;5057867;28;19925;-52
2022/03/20 10:26:43;;;;;;;;;;;22.00;44.40;;;;;;5070246;28;20453;-52
2022/03/20 10:29:14;;;;;;;;;;;22.10;42.40;;;;;;5067564;28;19924;-52
2022/03/20 10:31:52;;;;;;;;;;;21.80;44.60;;;;;;5067501;28;20065;-51
2022/03/20 10:34:19;;;;;;;;;;;22.50;42.20;;;;;;5061110;28;20288;-51
2022/03/20 10:36:47;;;;;;;;;;;22.10;43.30;;;;;;5061996;28;19933;-52
2022/03/20 10:39:15;;;;;;;;;;;22.00;43.70;;;;;;5069776;28;19954;-51
2022/03/20 10:41:45;;;;;;;;;;;21.50;42.00;;;;;;5038073;28;20067;-51
2022/03/20 10:44:13;;;;;;;;;;;21.30;45.60;;;;;;5031313;28;20278;-51
2022/03/20 10:46:40;;;;;;;;;;;21.90;44.30;;;;;;5034868;28;19984;-51
2022/03/20 10:49:07;;;;;;;;;;;22.20;43.10;;;;;;5048719;28;19925;-52
2022/03/20 10:51:41;;;;;;;;;;;21.60;42.50;;;;;;5039945;28;19932;-51
2022/03/20 10:54:10;;;;;;;;;;;21.00;43.60;;;;;;5045478;28;19925;-51
2022/03/20 10:56:37;;;;;;;;;;;20.20;43.50;;;;;;5048393;28;19986;-51
2022/03/20 10:59:15;;;;;;;;;;;20.10;44.30;;;;;;5040215;28;20513;-52
2022/03/20 11:01:43;;;;;;;;;;;19.50;44.70;;;;;;5050927;28;19925;-51
2022/03/20 11:04:11;;;;;;;;;;;18.90;52.60;;;;;;5050817;28;19935;-51
2022/03/20 11:06:38;;;;;;;;;;;17.30;61.70;;;;;;5050285;28;20392;-51
2022/03/20 11:09:05;;;;;;;;;;;15.70;65.60;;;;;;5051078;28;19931;-52
2022/03/20 11:11:33;;;;;;;;;;;15.60;68.00;;;;;;5050674;28;19971;-51
2022/03/20 11:14:00;;;;;;;;;;;15.40;68.90;;;;;;5045273;28;19979;-51
2022/03/20 11:16:29;;;;;;;;;;;15.30;71.20;;;;;;5045983;28;19933;-52
2022/03/20 11:18:57;;;;;;;;;;;15.00;71.00;;;;;;5044952;28;19929;-52
2022/03/20 11:21:25;;;;;;;;;;;14.60;73.50;;;;;;5038376;28;20402;-51
2022/03/20 11:23:52;;;;;;;;;;;15.30;72.60;;;;;;5043801;28;19971;-52
2022/03/20 11:26:21;;;;;;;;;;;15.70;72.00;;;;;;5050029;28;19975;-52
2022/03/20 11:28:54;;;;;;;;;;;15.90;72.90;;;;;;5038652;28;19925;-52
2022/03/20 11:31:22;;;;;;;;;;;16.00;70.90;;;;;;5047396;28;19931;-52
2022/03/20 11:33:51;;;;;;;;;;;15.70;72.70;;;;;;5048001;28;19932;-52
2022/03/20 11:36:18;;;;;;;;;;;15.40;73.40;;;;;;5034250;28;20330;-52
2022/03/20 11:39:04;;;;;;;;;;;15.30;73.30;;;;;;5043083;28;20354;-52
2022/03/20 11:41:31;;;;;;;;;;;15.40;72.80;;;;;;5043524;28;20022;-52
2022/03/20 11:44:14;;;;;;;;;;;15.30;71.80;;;;;;5036591;28;19941;-52
2022/03/20 11:46:44;;;;;;;;;;;15.40;71.60;;;;;;5053091;28;19978;-52
2022/03/20 11:49:24;;;;;;;;;;;15.20;68.10;;;;;;5053048;28;20400;-52
2022/03/20 11:51:52;;;;;;;;;;;15.20;67.90;;;;;;5108283;22;19928;-55
2022/03/20 11:54:19;;;;;;;;;;;15.50;68.80;;;;;;5078593;28;19924;-55
2022/03/20 11:56:48;;;;;;;;;;;15.50;65.70;;;;;;5094698;28;19924;-55
2022/03/20 11:59:29;;;;;;;;;;;15.20;66.00;;;;;;5090840;28;20066;-55
2022/03/20 12:02:01;;;;;;;;;;;15.20;66.30;;;;;;5077721;28;20418;-55
2022/03/20 12:04:36;;;;;;;;;;;15.10;66.60;;;;;;5091907;28;19971;-55
2022/03/20 12:07:14;;;;;;;;;;;15.00;67.30;;;;;;5092686;28;19924;-56
2022/03/20 12:09:56;;;;;;;;;;;15.20;66.90;;;;;;5090342;28;19924;-55
2022/03/20 12:12:31;;;;;;;;;;;15.10;67.10;;;;;;5071431;28;19924;-55
2022/03/20 12:15:03;;;;;;;;;;;15.40;65.70;;;;;;5089673;28;19998;-55
2022/03/20 12:17:56;;;;;;;;;;;15.50;67.80;;;;;;5091528;28;19932;-56
2022/03/20 12:20:38;;;;;;;;;;;15.20;64.80;;;;;;5090559;28;19931;-56
2022/03/20 12:23:23;;;;;;;;;;;14.90;66.70;;;;;;5087367;28;19928;-55
2022/03/20 12:25:51;;;;;;;;;;;14.80;65.80;;;;;;5092367;28;19924;-55
2022/03/20 12:28:30;;;;;;;;;;;15.10;65.60;;;;;;5092400;28;19924;-55
2022/03/20 12:30:57;;;;;;;;;;;14.80;65.50;;;;;;5079729;28;19936;-55
2022/03/20 12:33:25;;;;;;;;;;;14.70;64.70;;;;;;5073385;28;19978;-56
2022/03/20 12:35:52;;;;;;;;;;;14.50;65.30;;;;;;5073517;28;19950;-55
2022/03/20 12:38:35;;;;;;;;;;;14.90;63.20;;;;;;5073743;28;19924;-55
2022/03/20 12:41:14;;;;;;;;;;;15.30;65.00;;;;;;5093194;28;19946;-55
2022/03/20 12:43:42;;;;;;;;;;;15.40;63.40;;;;;;5087268;28;20024;-55
2022/03/20 12:46:09;;;;;;;;;;;15.10;62.10;;;;;;5077424;28;20303;-56
2022/03/20 12:48:36;;;;;;;;;;;15.20;63.40;;;;;;5083593;28;20385;-55
2022/03/20 12:51:06;;;;;;;;;;;15.00;62.30;;;;;;5091681;28;19931;-55
2022/03/20 12:53:37;;;;;;;;;;;15.00;65.60;;;;;;5074522;28;20384;-55
2022/03/20 12:56:07;;;;;;;;;;;14.80;61.10;;;;;;5092882;28;19924;-55
2022/03/20 12:58:35;;;;;;;;;;;15.10;64.00;;;;;;5092933;28;19924;-55
2022/03/20 13:01:07;;;;;;;;;;;15.30;59.90;;;;;;5091366;28;19924;-56
2022/03/20 13:03:34;;;;;;;;;;;15.30;60.00;;;;;;5077501;28;19925;-56
2022/03/20 13:06:03;;;;;;;;;;;15.30;63.30;;;;;;5077225;28;19985;-55
2022/03/20 13:08:30;;;;;;;;;;;15.50;60.70;;;;;;5087187;28;19957;-55
2022/03/20 13:10:58;;;;;;;;;;;15.50;60.80;;;;;;5082527;28;19924;-55
2022/03/20 13:13:27;;;;;;;;;;;15.30;61.20;;;;;;5092456;28;20323;-56
2022/03/20 13:15:56;;;;;;;;;;;15.20;64.90;;;;;;5091250;28;19978;-55
2022/03/20 13:18:24;;;;;;;;;;;15.20;63.60;;;;;;5090383;28;20011;-55
2022/03/20 13:20:51;;;;;;;;;;;15.20;63.30;;;;;;5085906;28;19924;-55
2022/03/20 13:23:19;;;;;;;;;;;15.30;64.00;;;;;;5076314;28;19928;-55
2022/03/20 13:25:48;;;;;;;;;;;15.50;63.30;;;;;;5078184;28;20432;-55
2022/03/20 13:28:27;;;;;;;;;;;15.70;63.40;;;;;;5081109;28;20022;-55
2022/03/20 13:30:54;;;;;;;;;;;15.90;60.50;;;;;;5086726;28;20010;-55
2022/03/20 13:33:29;;;;;;;;;;;16.00;62.70;;;;;;5092542;28;19930;-57
2022/03/20 13:35:56;;;;;;;;;;;15.50;60.90;;;;;;5090453;28;19928;-55
2022/03/20 13:38:22;;;;;;;;;;;15.30;60.30;;;;;;5086742;28;20229;-56
2022/03/20 13:40:50;;;;;;;;;;;15.50;60.70;;;;;;5079777;28;19924;-55
2022/03/20 13:43:21;;;;;;;;;;;15.60;61.00;;;;;;5079598;28;19935;-55
2022/03/20 13:45:48;;;;;;;;;;;15.80;62.00;;;;;;5083067;28;19935;-55
2022/03/20 13:48:17;;;;;;;;;;;15.90;59.60;;;;;;5072061;28;19930;-55
2022/03/20 13:50:46;;;;;;;;;;;16.00;60.70;;;;;;5080541;28;19924;-55
2022/03/20 13:53:13;;;;;;;;;;;16.00;59.50;;;;;;5080344;28;19924;-55
2022/03/20 13:55:39;;;;;;;;;;;16.30;58.70;;;;;;5091703;28;19969;-56
2022/03/20 13:58:08;;;;;;;;;;;16.20;57.20;;;;;;5080777;28;19928;-56
2022/03/20 14:00:36;;;;;;;;;;;16.00;57.10;;;;;;5089104;28;19978;-55
2022/03/20 14:03:03;;;;;;;;;;;16.10;57.20;;;;;;5073541;28;20457;-55
2022/03/20 14:05:31;;;;;;;;;;;16.00;59.00;;;;;;5071087;28;19930;-55
2022/03/20 14:08:13;;;;;;;;;;;15.90;57.80;;;;;;5078187;28;19924;-56
2022/03/20 14:10:47;;;;;;;;;;;15.70;60.00;;;;;;5075700;28;19961;-56
2022/03/20 14:13:15;;;;;;;;;;;15.80;59.00;;;;;;5071124;28;19924;-55
2022/03/20 14:15:41;;;;;;;;;;;15.50;58.50;;;;;;5075295;28;19925;-56
2022/03/20 14:18:12;;;;;;;;;;;15.50;57.70;;;;;;5079968;28;20335;-55
2022/03/20 14:20:39;;;;;;;;;;;15.60;57.30;;;;;;5071454;28;20019;-55
2022/03/20 14:23:10;;;;;;;;;;;16.10;57.40;;;;;;5073520;28;20015;-56
2022/03/20 14:25:39;;;;;;;;;;;16.30;59.40;;;;;;5071399;28;19924;-56
2022/03/20 14:28:07;;;;;;;;;;;16.40;56.50;;;;;;5082793;28;20011;-56
2022/03/20 14:41:36;;;;;;;;;;;16.20;59.40;;;;;;5072845;28;19990;-56
2022/03/20 14:44:08;;;;;;;;;;;16.30;58.70;;;;;;5078006;28;19982;-56
2022/03/20 14:46:35;;;;;;;;;;;16.20;58.90;;;;;;5071476;28;19932;-56
2022/03/20 14:49:03;;;;;;;;;;;16.30;57.70;;;;;;5079746;28;19962;-56
2022/03/20 14:51:30;;;;;;;;;;;16.20;56.80;;;;;;5073196;28;20063;-56
2022/03/20 14:53:58;;;;;;;;;;;16.10;57.10;;;;;;5078206;28;19924;-56
2022/03/20 14:56:26;;;;;;;;;;;16.20;60.70;;;;;;5072173;28;19924;-56
2022/03/20 14:58:53;;;;;;;;;;;16.30;58.90;;;;;;5088539;28;20382;-55
2022/03/20 15:01:20;;;;;;;;;;;16.00;59.40;;;;;;5076997;28;19975;-55
2022/03/20 15:03:47;;;;;;;;;;;16.00;59.20;;;;;;5087874;28;19974;-55
2022/03/20 15:06:14;;;;;;;;;;;16.00;58.80;;;;;;5076288;28;19928;-55
2022/03/20 15:11:26;;;;;;;;;;;15.90;58.20;;;;;;5090781;28;20408;-56
2022/03/20 15:13:53;;;;;;;;;;;15.90;57.70;;;;;;5087706;28;19953;-56
2022/03/20 15:16:24;;;;;;;;;;;15.60;58.40;;;;;;5075694;28;19928;-56
2022/03/20 15:18:51;;;;;;;;;;;15.70;58.70;;;;;;5083749;28;19924;-56
2022/03/20 15:21:21;;;;;;;;;;;15.70;58.70;;;;;;5085726;28;19945;-56